Time;durP1;ratioP1;P1;durP2;ratioP2;P2;SDS_P1;SDS_P2;PMS_P1;PMS_P2;Temp;Humidity;BMP_temperature;BMP_pressure;BME280_temperature;BME280_humidity;BME280_pressure;Samples;Min_cycle;Max_cycle;Signal;HPM_P1;HPM_P2
2022/08/31 00:05:49;;;;;;;7.55;4.40;;;16.80;99.90;;;;;;6151247;23;20212;-84
2022/08/31 00:08:18;;;;;;;8.38;4.95;;;16.80;99.90;;;;;;6149989;22;20108;-85
2022/08/31 00:10:46;;;;;;;6.13;4.55;;;16.80;99.90;;;;;;6152371;22;20021;-84
2022/08/31 00:13:20;;;;;;;7.65;4.03;;;16.80;99.90;;;;;;6151168;23;20028;-85
2022/08/31 00:15:48;;;;;;;8.23;4.40;;;16.70;99.90;;;;;;6126088;23;20047;-84
2022/08/31 00:18:19;;;;;;;6.90;4.68;;;16.70;99.90;;;;;;6176712;23;20032;-85
2022/08/31 00:20:51;;;;;;;6.38;4.97;;;16.70;99.90;;;;;;6151611;23;20074;-84
2022/08/31 00:23:17;;;;;;;7.18;4.72;;;16.70;99.90;;;;;;6177989;23;20056;-84
2022/08/31 00:25:49;;;;;;;7.85;5.60;;;16.70;99.90;;;;;;6151923;23;20028;-84
2022/08/31 00:28:16;;;;;;;9.85;5.32;;;16.60;99.90;;;;;;6151085;23;20031;-84
2022/08/31 00:30:43;;;;;;;6.25;5.00;;;16.60;99.90;;;;;;6152956;23;20341;-84
2022/08/31 00:33:12;;;;;;;6.25;4.55;;;17.20;99.90;;;;;;6152372;23;20027;-84
2022/08/31 00:35:40;;;;;;;6.22;4.82;;;16.60;99.90;;;;;;6152982;23;20017;-84
2022/08/31 00:38:07;;;;;;;10.88;4.82;;;16.50;99.90;;;;;;6152080;23;20106;-85
2022/08/31 00:40:36;;;;;;;7.65;4.70;;;16.40;99.90;;;;;;6152620;23;20021;-84
2022/08/31 00:43:02;;;;;;;5.35;3.95;;;16.40;99.90;;;;;;6152762;22;20485;-84
2022/08/31 00:45:31;;;;;;;7.07;3.83;;;16.30;99.90;;;;;;6178842;23;20021;-85
2022/08/31 00:47:56;;;;;;;8.13;4.28;;;16.30;99.90;;;;;;6178675;23;20021;-84
2022/08/31 00:50:23;;;;;;;6.53;3.70;;;16.30;99.90;;;;;;6179124;23;20025;-84
2022/08/31 00:53:00;;;;;;;5.90;3.58;;;16.20;99.90;;;;;;6178436;23;20017;-84
2022/08/31 00:55:34;;;;;;;15.38;3.45;;;16.20;99.90;;;;;;6178725;23;20060;-84
2022/08/31 00:58:07;;;;;;;4.63;3.33;;;16.10;99.90;;;;;;6128132;23;20432;-84
2022/08/31 01:00:34;;;;;;;6.35;3.00;;;16.00;99.90;;;;;;6151664;23;20044;-84
2022/08/31 01:03:02;;;;;;;4.28;2.63;;;16.00;99.90;;;;;;6152162;23;20345;-84
2022/08/31 01:05:30;;;;;;;4.82;2.83;;;16.00;99.90;;;;;;6178981;23;20024;-84
2022/08/31 01:07:58;;;;;;;3.97;2.40;;;15.90;99.90;;;;;;6152200;23;20092;-84
2022/08/31 01:10:30;;;;;;;4.80;2.63;;;16.00;99.90;;;;;;6178169;23;20117;-84
2022/08/31 01:12:58;;;;;;;3.72;2.00;;;15.90;99.90;;;;;;6152595;23;20138;-83
2022/08/31 01:15:29;;;;;;;3.97;1.90;;;15.90;99.90;;;;;;6127063;23;20025;-84
2022/08/31 01:17:59;;;;;;;2.25;1.60;;;15.90;99.90;;;;;;6152350;23;20021;-84
2022/08/31 01:20:53;;;;;;;3.40;1.77;;;15.90;99.90;;;;;;6152135;23;20021;-84
2022/08/31 01:23:21;;;;;;;3.22;1.80;;;15.80;99.90;;;;;;6178200;22;20021;-84
2022/08/31 01:25:48;;;;;;;2.33;1.38;;;15.80;99.90;;;;;;6177830;22;20017;-84
2022/08/31 01:28:16;;;;;;;2.80;1.30;;;15.70;99.90;;;;;;6127344;23;20021;-84
2022/08/31 01:30:56;;;;;;;2.10;0.98;;;15.70;99.90;;;;;;6152425;23;20024;-84
2022/08/31 01:33:22;;;;;;;3.50;1.20;;;15.70;99.90;;;;;;6153555;23;20109;-83
2022/08/31 01:35:50;;;;;;;2.58;1.08;;;15.60;99.90;;;;;;6180025;23;20480;-84
2022/08/31 01:38:19;;;;;;;1.85;0.90;;;15.70;99.90;;;;;;6153705;23;20029;-83
2022/08/31 01:40:57;;;;;;;2.63;0.90;;;15.50;99.90;;;;;;6152994;23;20025;-84
2022/08/31 01:43:23;;;;;;;2.95;1.08;;;15.50;99.90;;;;;;6179999;22;20078;-83
2022/08/31 01:45:50;;;;;;;2.50;0.75;;;15.40;99.90;;;;;;6153889;22;20017;-84
2022/08/31 01:48:17;;;;;;;2.85;0.90;;;15.30;99.90;;;;;;6153211;23;20021;-84
2022/08/31 01:50:45;;;;;;;1.42;0.77;;;15.40;99.90;;;;;;6153270;23;20017;-84
2022/08/31 01:53:11;;;;;;;1.00;0.45;;;15.20;99.90;;;;;;6180014;23;20021;-84
2022/08/31 01:55:37;;;;;;;4.75;0.50;;;15.20;99.90;;;;;;6153885;23;20021;-84
2022/08/31 01:58:04;;;;;;;0.90;0.40;;;15.10;99.90;;;;;;6179314;22;20530;-83
2022/08/31 02:00:30;;;;;;;0.93;0.40;;;15.10;99.90;;;;;;6152699;23;20063;-84
2022/08/31 02:03:02;;;;;;;2.10;0.43;;;15.00;99.90;;;;;;6178066;23;20028;-84
2022/08/31 02:05:28;;;;;;;2.55;0.40;;;15.00;99.90;;;;;;6151714;23;20028;-84
2022/08/31 02:07:55;;;;;;;1.98;0.60;;;14.90;99.90;;;;;;6256614;22;20017;-84
2022/08/31 02:10:21;;;;;;;2.53;0.50;;;14.80;99.90;;;;;;6152251;22;20048;-85
2022/08/31 02:12:48;;;;;;;1.20;0.35;;;14.80;99.90;;;;;;6151914;23;20014;-84
2022/08/31 02:15:13;;;;;;;1.55;0.40;;;15.20;99.90;;;;;;6151083;23;20021;-84
2022/08/31 02:17:39;;;;;;;1.30;0.30;;;14.70;99.90;;;;;;6150809;23;20020;-85
2022/08/31 02:20:07;;;;;;;1.15;0.32;;;14.70;99.90;;;;;;6150025;23;20048;-84
2022/08/31 02:22:36;;;;;;;0.60;0.30;;;14.60;99.90;;;;;;6150201;23;20095;-84
2022/08/31 02:25:01;;;;;;;2.03;0.40;;;14.60;99.90;;;;;;6149835;23;20013;-84
2022/08/31 02:27:27;;;;;;;1.58;0.30;;;14.60;99.90;;;;;;6176782;23;20024;-84
2022/08/31 02:29:55;;;;;;;1.45;0.40;;;14.50;99.90;;;;;;6176733;23;20013;-84
2022/08/31 02:32:22;;;;;;;1.10;0.45;;;14.50;99.90;;;;;;6150853;23;20029;-84
2022/08/31 02:34:48;;;;;;;2.47;0.40;;;14.40;99.90;;;;;;6177103;23;20025;-84
2022/08/31 02:37:15;;;;;;;2.13;0.30;;;14.40;99.90;;;;;;6149277;23;20017;-84
2022/08/31 02:39:41;;;;;;;1.35;0.35;;;14.40;99.90;;;;;;6176486;23;20009;-85
2022/08/31 02:42:09;;;;;;;1.08;0.30;;;14.40;99.90;;;;;;6150163;23;20440;-84
2022/08/31 02:44:42;;;;;;;1.85;0.50;;;14.30;99.90;;;;;;6150047;23;20017;-84
2022/08/31 02:47:08;;;;;;;1.23;0.38;;;14.30;99.90;;;;;;6150423;23;20032;-84
2022/08/31 02:49:34;;;;;;;0.95;0.35;;;14.30;99.90;;;;;;6150372;23;20457;-84
2022/08/31 02:51:59;;;;;;;0.90;0.38;;;14.20;99.90;;;;;;6176910;23;20028;-85
2022/08/31 02:54:25;;;;;;;3.33;0.43;;;14.20;99.90;;;;;;6150391;23;20021;-84
2022/08/31 02:56:54;;;;;;;2.63;0.40;;;14.20;99.90;;;;;;6150026;23;20017;-84
2022/08/31 02:59:20;;;;;;;2.25;0.40;;;14.30;99.90;;;;;;6174406;22;20042;-89
2022/08/31 03:01:46;;;;;;;1.23;0.40;;;14.20;99.90;;;;;;6184449;23;20441;-88
2022/08/31 03:04:12;;;;;;;1.25;0.40;;;14.10;99.90;;;;;;6182925;23;20021;-89
2022/08/31 03:06:38;;;;;;;1.50;0.57;;;14.10;99.90;;;;;;6182637;23;20066;-88
2022/08/31 03:09:04;;;;;;;0.80;0.35;;;14.10;99.90;;;;;;6182945;23;20024;-88
2022/08/31 03:11:30;;;;;;;1.38;0.50;;;14.10;99.90;;;;;;6186757;23;20467;-88
2022/08/31 03:13:56;;;;;;;2.10;0.45;;;14.00;99.90;;;;;;6186455;23;20100;-89
2022/08/31 03:16:22;;;;;;;1.98;0.60;;;14.00;99.90;;;;;;6182828;23;20017;-89
2022/08/31 03:18:47;;;;;;;1.13;0.50;;;14.00;99.90;;;;;;6182670;23;20017;-89
2022/08/31 03:21:14;;;;;;;1.17;0.50;;;14.00;99.90;;;;;;6184387;23;20062;-89
2022/08/31 03:23:40;;;;;;;2.15;0.38;;;14.00;99.90;;;;;;6184609;23;20013;-87
2022/08/31 03:26:06;;;;;;;2.08;0.50;;;13.90;99.90;;;;;;6184877;23;20084;-88
2022/08/31 03:28:34;;;;;;;1.95;0.50;;;14.10;99.90;;;;;;6184551;22;20021;-89
2022/08/31 03:30:59;;;;;;;1.33;0.50;;;14.00;99.90;;;;;;6183300;23;20375;-89
2022/08/31 03:33:25;;;;;;;6.50;1.35;;;13.90;99.90;;;;;;6184267;23;20055;-89
2022/08/31 03:35:52;;;;;;;2.63;0.60;;;13.80;99.90;;;;;;6157887;23;20032;-89
2022/08/31 03:38:19;;;;;;;1.33;0.50;;;13.80;99.90;;;;;;6182656;23;20021;-89
2022/08/31 03:40:45;;;;;;;1.65;0.50;;;13.80;99.90;;;;;;6181522;23;20017;-89
2022/08/31 03:43:11;;;;;;;3.10;0.50;;;13.80;99.90;;;;;;6182858;23;20013;-89
2022/08/31 03:45:39;;;;;;;2.70;0.50;;;13.70;99.90;;;;;;6182617;23;20021;-89
2022/08/31 03:48:05;;;;;;;1.48;0.50;;;13.70;99.90;;;;;;6157984;23;20341;-89
2022/08/31 03:50:34;;;;;;;1.70;0.40;;;13.70;99.90;;;;;;6181708;23;20021;-89
2022/08/31 03:53:04;;;;;;;1.00;0.45;;;13.70;99.90;;;;;;6157654;23;20017;-89
2022/08/31 03:55:32;;;;;;;1.17;0.50;;;13.60;99.90;;;;;;6181899;23;20096;-89
2022/08/31 03:57:58;;;;;;;3.05;0.50;;;13.60;99.90;;;;;;6183264;23;20385;-89
2022/08/31 04:00:24;;;;;;;0.52;0.40;;;13.60;99.90;;;;;;6182308;23;20473;-89
2022/08/31 04:02:50;;;;;;;1.77;0.55;;;13.60;99.90;;;;;;6157890;22;20017;-89
2022/08/31 04:05:16;;;;;;;1.70;0.70;;;13.50;99.90;;;;;;6184137;23;20024;-88
2022/08/31 04:07:43;;;;;;;1.75;0.50;;;13.50;99.90;;;;;;6157369;23;20029;-89
2022/08/31 04:10:11;;;;;;;2.55;0.40;;;13.50;99.90;;;;;;6181689;23;20100;-88
2022/08/31 04:12:36;;;;;;;3.47;0.50;;;13.40;99.90;;;;;;6182461;23;20066;-89
2022/08/31 04:15:02;;;;;;;3.03;0.70;;;13.40;99.90;;;;;;6157248;23;20029;-89
2022/08/31 04:17:28;;;;;;;2.90;0.65;;;13.40;99.90;;;;;;6182752;23;20021;-89
2022/08/31 04:19:54;;;;;;;1.40;0.60;;;13.40;99.90;;;;;;6184065;23;20013;-89
2022/08/31 04:22:19;;;;;;;3.17;0.40;;;13.30;99.90;;;;;;6182130;23;20028;-89
2022/08/31 04:24:45;;;;;;;3.35;0.70;;;13.30;99.90;;;;;;6183703;23;20017;-89
2022/08/31 04:27:11;;;;;;;1.42;0.60;;;13.30;99.90;;;;;;6184264;23;20031;-89
2022/08/31 04:29:36;;;;;;;0.68;0.45;;;13.30;99.90;;;;;;6182653;23;20154;-89
2022/08/31 04:32:02;;;;;;;2.42;0.70;;;13.30;99.90;;;;;;6182721;23;20021;-89
2022/08/31 04:34:28;;;;;;;1.80;0.50;;;13.30;99.90;;;;;;6182334;23;20023;-89
2022/08/31 04:36:54;;;;;;;3.05;0.75;;;13.20;99.90;;;;;;6182954;23;20112;-88
2022/08/31 04:39:21;;;;;;;1.50;0.50;;;13.20;99.90;;;;;;6182047;23;20021;-89
2022/08/31 04:41:47;;;;;;;1.58;0.60;;;13.20;99.90;;;;;;6180305;23;20044;-88
2022/08/31 04:44:13;;;;;;;2.65;0.57;;;13.10;99.90;;;;;;6181440;23;20017;-89
2022/08/31 04:46:40;;;;;;;4.15;0.60;;;13.20;99.90;;;;;;6153377;22;20024;-89
2022/08/31 04:49:08;;;;;;;1.00;0.50;;;13.10;99.90;;;;;;6180955;23;20040;-89
2022/08/31 04:51:34;;;;;;;1.25;0.50;;;13.10;99.90;;;;;;6180897;23;20086;-89
2022/08/31 04:54:02;;;;;;;1.95;0.50;;;13.00;99.90;;;;;;6179247;23;20018;-89
2022/08/31 04:56:32;;;;;;;2.05;0.50;;;13.00;99.90;;;;;;6180920;23;20028;-89
2022/08/31 04:59:04;;;;;;;2.10;0.50;;;13.00;99.90;;;;;;6154531;22;20345;-88
2022/08/31 05:01:37;;;;;;;3.55;0.60;;;13.00;99.90;;;;;;6179828;23;20092;-88
2022/08/31 05:04:04;;;;;;;2.08;0.57;;;12.90;99.90;;;;;;6181153;22;20025;-88
2022/08/31 05:06:35;;;;;;;1.67;0.50;;;12.90;99.90;;;;;;6151528;22;20353;-88
2022/08/31 05:09:05;;;;;;;5.80;0.77;;;12.80;99.90;;;;;;6178132;23;20052;-89
2022/08/31 05:11:34;;;;;;;1.63;0.60;;;12.90;99.90;;;;;;6177252;23;20028;-89
2022/08/31 05:14:02;;;;;;;1.38;0.70;;;13.50;99.90;;;;;;6175867;22;20032;-89
2022/08/31 05:16:32;;;;;;;1.55;0.40;;;13.00;99.90;;;;;;6175976;23;20028;-88
2022/08/31 05:18:59;;;;;;;2.80;0.60;;;12.80;99.90;;;;;;6151792;22;20137;-89
2022/08/31 05:21:28;;;;;;;1.88;0.47;;;12.80;99.90;;;;;;6150839;22;20013;-89
2022/08/31 05:24:15;;;;;;;2.30;0.65;;;13.50;99.90;;;;;;6150844;22;20017;-88
2022/08/31 05:26:44;;;;;;;2.22;0.50;;;12.80;99.90;;;;;;6176017;22;20021;-89
2022/08/31 05:29:14;;;;;;;2.28;0.60;;;13.40;99.90;;;;;;6176551;22;20333;-89
2022/08/31 05:31:42;;;;;;;1.70;0.60;;;12.70;99.90;;;;;;6176599;23;20467;-90
2022/08/31 05:34:08;;;;;;;4.78;0.60;;;12.80;99.90;;;;;;6176873;22;20060;-90
2022/08/31 05:36:34;;;;;;;3.50;0.60;;;12.70;99.90;;;;;;6177501;23;20025;-89
2022/08/31 05:39:00;;;;;;;0.93;0.38;;;12.70;99.90;;;;;;6178007;23;20467;-90
2022/08/31 05:41:28;;;;;;;2.38;0.60;;;12.80;99.90;;;;;;6178746;23;20543;-90
2022/08/31 05:43:53;;;;;;;2.60;0.65;;;13.00;99.90;;;;;;6176283;23;20024;-89
2022/08/31 05:46:19;;;;;;;1.80;0.47;;;12.70;99.90;;;;;;6151513;23;20021;-89
2022/08/31 05:48:45;;;;;;;1.05;0.50;;;12.70;99.90;;;;;;6176251;23;20094;-89
2022/08/31 05:51:15;;;;;;;3.35;0.63;;;12.80;99.90;;;;;;6175524;23;20387;-90
2022/08/31 05:53:41;;;;;;;1.45;0.50;;;12.80;99.90;;;;;;6177947;23;20017;-89
2022/08/31 05:56:13;;;;;;;2.60;1.10;;;12.80;99.90;;;;;;6177220;23;20068;-88
2022/08/31 05:58:41;;;;;;;4.55;0.90;;;12.80;99.90;;;;;;6181648;22;20028;-89
2022/08/31 06:01:24;;;;;;;3.95;0.73;;;12.80;99.90;;;;;;6276847;22;20060;-89
2022/08/31 06:03:52;;;;;;;2.60;0.57;;;12.80;99.90;;;;;;6276950;22;20062;-88
2022/08/31 06:06:18;;;;;;;3.55;0.60;;;13.10;99.90;;;;;;6303085;22;20749;-89
2022/08/31 06:08:44;;;;;;;2.28;0.80;;;12.90;99.90;;;;;;6251258;22;20026;-88
2022/08/31 06:11:16;;;;;;;2.33;0.70;;;13.00;99.90;;;;;;6278340;22;20019;-90
2022/08/31 06:13:42;;;;;;;3.53;0.80;;;13.00;99.90;;;;;;6278152;22;20038;-86
2022/08/31 06:16:08;;;;;;;3.80;0.60;;;13.00;99.90;;;;;;6282194;22;20023;-90
2022/08/31 06:18:37;;;;;;;1.40;0.60;;;13.00;99.90;;;;;;6283172;22;20012;-91
2022/08/31 06:21:08;;;;;;;8.48;0.60;;;13.00;99.90;;;;;;6275480;22;20518;-90
2022/08/31 06:23:43;;;;;;;2.08;0.75;;;13.10;99.90;;;;;;6276869;22;20048;-90
2022/08/31 06:26:14;;;;;;;3.22;0.50;;;13.10;99.90;;;;;;6303542;22;20328;-90
2022/08/31 06:28:42;;;;;;;2.72;0.60;;;13.20;99.90;;;;;;6278640;22;20102;-89
2022/08/31 06:31:17;;;;;;;2.13;0.60;;;13.20;99.90;;;;;;6254872;22;20320;-89
2022/08/31 06:33:43;;;;;;;3.05;0.80;;;13.30;99.90;;;;;;6276995;22;20011;-90
2022/08/31 06:36:14;;;;;;;1.92;0.65;;;13.30;99.90;;;;;;6303633;22;20522;-89
2022/08/31 06:38:42;;;;;;;1.50;0.60;;;13.40;99.90;;;;;;6250730;22;20007;-90
2022/08/31 06:41:16;;;;;;;1.42;0.80;;;13.40;99.90;;;;;;6250323;22;20060;-90
2022/08/31 06:43:43;;;;;;;1.95;0.82;;;13.50;99.90;;;;;;6303366;22;20026;-90
2022/08/31 06:46:09;;;;;;;1.42;0.75;;;13.50;99.90;;;;;;6277207;22;20026;-90
2022/08/31 06:48:35;;;;;;;3.17;0.93;;;13.60;99.90;;;;;;6279030;22;20007;-91
2022/08/31 06:51:02;;;;;;;4.15;0.80;;;13.60;99.90;;;;;;6274788;22;20016;-88
2022/08/31 06:53:28;;;;;;;4.68;0.73;;;13.70;99.90;;;;;;6275071;22;20081;-88
2022/08/31 06:55:54;;;;;;;2.88;0.60;;;13.80;99.90;;;;;;6249572;22;20454;-88
2022/08/31 06:58:20;;;;;;;3.15;0.63;;;13.80;99.90;;;;;;6274891;22;20011;-88
2022/08/31 07:00:46;;;;;;;3.15;0.82;;;13.90;99.90;;;;;;6182294;22;20065;-88
2022/08/31 07:03:22;;;;;;;1.20;0.55;;;14.00;99.90;;;;;;6174080;23;20032;-88
2022/08/31 07:05:49;;;;;;;1.17;0.60;;;14.10;99.90;;;;;;6176019;23;20021;-88
2022/08/31 07:08:15;;;;;;;2.17;0.70;;;14.20;99.90;;;;;;6150322;22;20390;-88
2022/08/31 07:10:41;;;;;;;2.83;0.80;;;14.30;99.90;;;;;;6150009;22;20017;-88
2022/08/31 07:13:07;;;;;;;2.03;0.70;;;14.30;99.90;;;;;;6175326;23;20088;-89
2022/08/31 07:15:32;;;;;;;3.47;0.90;;;14.40;99.90;;;;;;6174366;23;20014;-88
2022/08/31 07:17:58;;;;;;;4.32;1.08;;;14.40;99.90;;;;;;6176302;23;20037;-88
2022/08/31 07:20:23;;;;;;;4.13;0.80;;;14.50;99.90;;;;;;6175012;23;20028;-89
2022/08/31 07:22:49;;;;;;;4.85;0.68;;;14.50;99.90;;;;;;6176501;23;20032;-88
2022/08/31 07:25:16;;;;;;;6.32;0.80;;;14.60;99.90;;;;;;6176062;23;20016;-88
2022/08/31 07:27:43;;;;;;;2.35;0.40;;;14.60;99.90;;;;;;6174931;23;20368;-89
2022/08/31 07:30:09;;;;;;;2.15;0.60;;;14.70;99.90;;;;;;6174918;23;20020;-89
2022/08/31 07:32:37;;;;;;;1.17;0.50;;;14.80;99.90;;;;;;6173331;23;20514;-89
2022/08/31 07:35:03;;;;;;;1.40;0.50;;;14.90;99.90;;;;;;6148974;23;20070;-88
2022/08/31 07:43:00;;;;;;;1.00;0.38;;;15.20;99.90;;;;;;6175255;23;20028;-88
2022/08/31 07:45:26;;;;;;;1.48;0.40;;;15.30;99.90;;;;;;6150167;22;20105;-89
2022/08/31 07:47:53;;;;;;;1.65;0.50;;;15.40;99.90;;;;;;6174080;23;20052;-88
2022/08/31 07:50:20;;;;;;;1.10;0.43;;;15.40;99.90;;;;;;6149297;22;20017;-89
2022/08/31 07:52:50;;;;;;;1.48;0.47;;;15.50;99.90;;;;;;6174905;23;20085;-89
2022/08/31 07:55:17;;;;;;;2.38;0.30;;;15.60;99.90;;;;;;6175249;22;20070;-89
2022/08/31 07:57:45;;;;;;;6.25;0.50;;;15.60;99.90;;;;;;6174804;23;20017;-90
2022/08/31 08:00:13;;;;;;;1.38;0.40;;;15.70;99.90;;;;;;6175119;23;20018;-90
2022/08/31 08:02:40;;;;;;;1.55;0.40;;;15.80;99.90;;;;;;6176306;23;20017;-89
2022/08/31 08:05:08;;;;;;;0.68;0.30;;;15.80;99.90;;;;;;6174183;23;20013;-91
2022/08/31 08:07:38;;;;;;;3.00;0.52;;;15.90;99.90;;;;;;6174630;23;20662;-88
2022/08/31 08:10:08;;;;;;;1.20;0.38;;;15.90;99.90;;;;;;6149449;22;20087;-89
2022/08/31 08:12:35;;;;;;;0.88;0.30;;;16.00;99.90;;;;;;6175738;23;20028;-89
2022/08/31 08:15:05;;;;;;;1.15;0.40;;;16.00;99.90;;;;;;6174963;23;20041;-89
2022/08/31 08:17:31;;;;;;;2.13;0.40;;;16.10;99.90;;;;;;6174831;22;20013;-88
2022/08/31 08:19:57;;;;;;;2.20;0.40;;;16.40;99.90;;;;;;6177788;23;20024;-91
2022/08/31 08:22:23;;;;;;;3.35;0.32;;;16.30;99.90;;;;;;6179645;23;20332;-93
2022/08/31 08:24:49;;;;;;;1.70;0.32;;;16.40;99.90;;;;;;6182260;22;20025;-91
2022/08/31 08:27:16;;;;;;;1.65;0.47;;;16.40;99.90;;;;;;6180797;23;20506;-92
2022/08/31 08:29:43;;;;;;;2.25;0.68;;;16.60;99.90;;;;;;6188235;23;20009;-94
2022/08/31 08:32:09;;;;;;;0.45;0.20;;;16.70;99.90;;;;;;6181408;23;20025;-92
2022/08/31 08:34:42;;;;;;;1.08;0.40;;;16.80;99.90;;;;;;6179371;22;20126;-91
2022/08/31 08:37:08;;;;;;;2.60;0.40;;;16.90;99.90;;;;;;6179068;23;20017;-92
2022/08/31 08:39:34;;;;;;;3.35;0.60;;;17.00;99.90;;;;;;6182000;23;20074;-93
2022/08/31 08:42:01;;;;;;;2.05;0.63;;;17.10;99.90;;;;;;6180454;23;20021;-92
2022/08/31 08:44:29;;;;;;;2.90;0.50;;;17.20;99.90;;;;;;6153053;22;20057;-92
2022/08/31 08:46:58;;;;;;;2.40;0.45;;;17.50;99.90;;;;;;6177974;23;20281;-92
2022/08/31 08:49:45;;;;;;;2.80;0.40;;;17.40;99.90;;;;;;6177439;22;20059;-93
2022/08/31 08:52:20;;;;;;;2.45;0.60;;;17.50;99.90;;;;;;6152613;22;20096;-92
2022/08/31 08:54:46;;;;;;;;;;;17.60;99.90;;;;;;6178088;23;20017;-92
2022/08/31 08:57:16;;;;;;;0.80;0.40;;;17.80;99.90;;;;;;6175833;23;19920;-92
2022/08/31 08:59:44;;;;;;;2.88;0.50;;;17.90;99.90;;;;;;6184585;22;20355;-92
2022/08/31 09:02:29;;;;;;;4.00;0.63;;;18.00;99.90;;;;;;6183463;23;20021;-93
2022/08/31 09:04:58;;;;;;;3.00;0.60;;;18.10;99.90;;;;;;6177034;23;20454;-93
2022/08/31 09:07:55;;;;;;;2.13;0.40;;;18.30;99.90;;;;;;6176806;23;20024;-91
2022/08/31 09:10:34;;;;;;;1.83;0.30;;;18.40;99.90;;;;;;6181636;23;20013;-94
2022/08/31 09:13:17;;;;;;;3.20;0.40;;;18.50;99.90;;;;;;6177466;23;20021;-90
2022/08/31 09:16:03;;;;;;;3.97;0.40;;;18.70;99.90;;;;;;6179070;23;20063;-91
2022/08/31 09:18:48;;;;;;;0.82;0.40;;;18.80;99.90;;;;;;6175206;23;20043;-87
2022/08/31 09:21:20;;;;;;;1.63;0.55;;;18.90;99.40;;;;;;6182970;23;20021;-90
2022/08/31 09:23:51;;;;;;;1.40;0.30;;;19.00;99.70;;;;;;6176903;23;20009;-84
2022/08/31 09:26:19;;;;;;;1.20;0.40;;;19.20;99.00;;;;;;6177166;23;20063;-91
2022/08/31 09:28:49;;;;;;;3.10;0.75;;;19.30;98.90;;;;;;6150644;22;20145;-91
2022/08/31 09:31:38;;;;;;;2.90;0.60;;;19.40;98.70;;;;;;6155052;22;20072;-91
2022/08/31 09:34:23;;;;;;;3.22;0.60;;;19.60;97.90;;;;;;6163621;22;20035;-91
2022/08/31 09:36:51;;;;;;;1.98;0.60;;;19.60;98.30;;;;;;6181568;23;20052;-91
2022/08/31 09:39:28;;;;;;;5.88;0.82;;;19.80;98.20;;;;;;6177557;23;20021;-91
2022/08/31 09:42:00;;;;;;;3.03;0.47;;;19.80;97.70;;;;;;6175859;22;20025;-91
2022/08/31 09:44:33;;;;;;;4.28;0.60;;;19.90;97.90;;;;;;6151389;22;20341;-92
2022/08/31 09:47:03;;;;;;;1.58;0.50;;;19.90;98.20;;;;;;6178315;23;20021;-91
2022/08/31 09:49:37;;;;;;;1.65;0.50;;;20.00;97.80;;;;;;6174844;23;20028;-91
2022/08/31 09:55:17;;;;;;;1.03;0.30;;;20.30;96.50;;;;;;6180958;23;20086;-91
2022/08/31 09:57:47;;;;;;;4.45;0.40;;;20.50;96.60;;;;;;6153062;22;20055;-90
2022/08/31 10:00:17;;;;;;;1.45;0.40;;;20.60;96.40;;;;;;6152576;22;20025;-90
2022/08/31 10:02:44;;;;;;;10.77;0.75;;;20.70;95.90;;;;;;6178339;23;20009;-86
2022/08/31 10:05:31;;;;;;;2.60;0.40;;;20.80;95.90;;;;;;6181460;23;20024;-94
2022/08/31 10:08:08;;;;;;;3.95;0.60;;;20.90;94.20;;;;;;6154110;23;20028;-91
2022/08/31 10:10:35;;;;;;;;;;;21.00;94.60;;;;;;6177717;23;20041;-85
2022/08/31 10:13:12;;;;;;;2.03;0.40;;;21.10;93.80;;;;;;6176051;23;19923;-84
2022/08/31 10:15:51;;;;;;;2.38;0.47;;;21.30;94.50;;;;;;6150236;23;20021;-86
2022/08/31 10:18:29;;;;;;;1.77;0.30;;;21.40;94.20;;;;;;6150734;22;20013;-87
2022/08/31 10:21:06;;;;;;;3.05;0.70;;;21.50;93.90;;;;;;6177914;23;20349;-87
2022/08/31 10:23:53;;;;;;;2.17;0.57;;;21.70;93.40;;;;;;6177341;23;20052;-92
2022/08/31 10:26:45;;;;;;;0.70;0.40;;;21.90;93.40;;;;;;6150948;22;20028;-92
2022/08/31 10:29:33;;;;;;;2.67;0.43;;;22.00;93.10;;;;;;6150793;22;20016;-89
2022/08/31 10:32:02;;;;;;;1.42;0.40;;;22.10;92.40;;;;;;6151134;22;20437;-92
2022/08/31 10:38:00;;;;;;;3.28;0.52;;;22.20;91.90;;;;;;6175976;23;20025;-93
2022/08/31 10:40:31;;;;;;;0.80;0.50;;;22.30;91.30;;;;;;6190108;23;20015;-95
2022/08/31 10:43:12;;;;;;;4.72;0.57;;;22.40;92.10;;;;;;6239041;23;20107;-87
2022/08/31 10:45:44;;;;;;;3.72;0.40;;;22.30;92.00;;;;;;6187994;23;20539;-93
2022/08/31 10:48:11;;;;;;;2.05;0.47;;;22.10;92.00;;;;;;6238648;23;20035;-92
2022/08/31 10:50:49;;;;;;;1.13;0.40;;;22.10;92.00;;;;;;6213919;23;20027;-92
2022/08/31 10:53:31;;;;;;;1.83;0.40;;;21.90;91.30;;;;;;6239327;23;20463;-93
2022/08/31 10:56:13;;;;;;;4.28;0.50;;;21.90;91.80;;;;;;6239054;23;20016;-92
2022/08/31 10:58:47;;;;;;;3.08;0.40;;;21.90;91.40;;;;;;6214200;23;20024;-93
2022/08/31 11:01:27;;;;;;;1.33;0.30;;;21.90;91.70;;;;;;6213614;23;20019;-93
2022/08/31 11:03:58;;;;;;;2.38;0.40;;;22.00;91.70;;;;;;6239427;23;20050;-92
2022/08/31 11:06:36;;;;;;;1.98;0.30;;;22.10;91.50;;;;;;6188780;23;20062;-92
2022/08/31 11:09:20;;;;;;;5.38;0.45;;;22.20;91.70;;;;;;6239921;23;20074;-92
2022/08/31 11:12:07;;;;;;;2.65;0.30;;;22.40;91.50;;;;;;6220244;23;20096;-92
2022/08/31 11:14:44;;;;;;;1.02;0.40;;;22.60;91.00;;;;;;6168093;23;20078;-93
2022/08/31 11:17:37;;;;;;;3.05;0.40;;;22.70;90.90;;;;;;6176970;23;20009;-92
2022/08/31 11:20:08;;;;;;;0.82;0.30;;;22.90;90.20;;;;;;6151240;23;20021;-92
2022/08/31 11:23:13;;;;;;;0.93;0.30;;;23.00;90.10;;;;;;6176019;23;20107;-92
2022/08/31 11:26:10;;;;;;;1.27;0.40;;;23.10;89.90;;;;;;6175962;23;20061;-91
2022/08/31 11:29:12;;;;;;;6.03;0.50;;;23.20;89.70;;;;;;6151317;23;20079;-92
2022/08/31 11:31:39;;;;;;;1.42;0.35;;;23.30;86.90;;;;;;6176858;23;20021;-93
2022/08/31 11:34:24;;;;;;;4.07;0.50;;;23.40;88.20;;;;;;6177802;23;20448;-93
2022/08/31 11:36:54;;;;;;;1.52;0.30;;;23.50;88.40;;;;;;6151443;22;20070;-93
2022/08/31 11:39:35;;;;;;;1.88;0.35;;;23.60;89.00;;;;;;6175546;22;20013;-93
2022/08/31 11:42:03;;;;;;;3.35;0.50;;;23.70;87.50;;;;;;6176381;23;20021;-91
2022/08/31 11:44:29;;;;;;;1.23;0.50;;;23.70;86.70;;;;;;6175802;23;20013;-93
2022/08/31 11:47:26;;;;;;;1.00;0.30;;;23.80;87.40;;;;;;6177169;23;20389;-93
2022/08/31 11:50:23;;;;;;;2.53;0.60;;;23.80;83.40;;;;;;6178479;23;20052;-93
2022/08/31 11:52:52;;;;;;;3.05;0.47;;;23.90;85.30;;;;;;6214431;23;20296;-94
2022/08/31 11:55:44;;;;;;;2.53;0.40;;;24.00;84.90;;;;;;6240135;23;20020;-93
2022/08/31 11:58:24;;;;;;;2.67;0.50;;;24.10;85.10;;;;;;6240280;23;20530;-93
2022/08/31 12:00:58;;;;;;;1.65;0.40;;;24.20;84.20;;;;;;6214803;23;20095;-93
2022/08/31 12:03:51;;;;;;;1.13;0.30;;;24.30;82.80;;;;;;6239795;23;20031;-93
2022/08/31 12:06:30;;;;;;;2.38;0.30;;;24.40;82.10;;;;;;6189227;23;20023;-93
2022/08/31 12:09:26;;;;;;;5.07;0.60;;;24.40;84.00;;;;;;6188813;23;20016;-93
2022/08/31 12:12:06;;;;;;;1.58;0.40;;;24.50;80.20;;;;;;6239619;23;20439;-94
2022/08/31 12:15:08;;;;;;;1.33;0.43;;;24.70;84.10;;;;;;6214878;23;20020;-94
2022/08/31 12:17:43;;;;;;;2.50;0.30;;;24.70;82.00;;;;;;6240668;23;20028;-92
2022/08/31 12:20:30;;;;;;;1.50;0.30;;;24.90;84.40;;;;;;6242757;23;20020;-93
2022/08/31 12:26:19;;;;;;;4.70;0.40;;;24.90;84.40;;;;;;6242436;23;20024;-92
2022/08/31 12:28:47;;;;;;;2.03;0.30;;;24.90;85.50;;;;;;6202570;23;20021;-90
2022/08/31 12:31:16;;;;;;;2.25;0.30;;;25.00;83.30;;;;;;6179277;23;20035;-92
2022/08/31 12:33:54;;;;;;;2.65;0.68;;;25.10;82.90;;;;;;6177886;23;20029;-92
2022/08/31 12:36:25;;;;;;;2.30;0.57;;;25.20;81.30;;;;;;6182259;23;20021;-92
2022/08/31 12:39:25;;;;;;;2.03;0.50;;;25.30;81.90;;;;;;6161971;22;20091;-92
2022/08/31 12:41:55;;;;;;;0.63;0.30;;;25.30;80.80;;;;;;6194261;23;20021;-91
2022/08/31 12:44:30;;;;;;;2.22;0.40;;;25.30;81.50;;;;;;6176782;23;20021;-91
2022/08/31 12:47:03;;;;;;;1.40;0.32;;;25.20;82.30;;;;;;6150907;23;20108;-91
2022/08/31 12:49:34;;;;;;;0.83;0.37;;;25.30;80.30;;;;;;6176044;23;20096;-92
2022/08/31 12:52:18;;;;;;;7.25;0.60;;;25.30;79.50;;;;;;6175510;23;20017;-92
2022/08/31 12:55:11;;;;;;;1.88;0.50;;;25.40;80.20;;;;;;6177029;23;20720;-93
2022/08/31 12:57:58;;;;;;;1.48;0.40;;;25.50;80.80;;;;;;6178574;23;20074;-93
2022/08/31 13:00:29;;;;;;;4.32;0.30;;;25.50;77.10;;;;;;6274000;22;20016;-91
2022/08/31 13:03:00;;;;;;;1.60;0.40;;;25.60;79.40;;;;;;6275621;22;20026;-93
2022/08/31 13:05:32;;;;;;;5.28;0.40;;;25.60;79.10;;;;;;6275265;22;20019;-92
2022/08/31 13:07:58;;;;;;;1.65;0.38;;;25.60;77.40;;;;;;6276535;22;20098;-92
2022/08/31 13:10:34;;;;;;;0.52;0.30;;;25.60;78.30;;;;;;6276377;22;20019;-92
2022/08/31 13:13:04;;;;;;;4.50;0.45;;;25.70;78.40;;;;;;6250579;22;20046;-92
2022/08/31 13:15:42;;;;;;;0.68;0.30;;;25.80;77.70;;;;;;6275562;22;20023;-92
2022/08/31 13:18:13;;;;;;;0.80;0.30;;;25.80;77.70;;;;;;6250042;22;20058;-92
2022/08/31 13:20:41;;;;;;;1.88;0.38;;;25.80;77.70;;;;;;6303344;22;20007;-92
2022/08/31 13:23:13;;;;;;;0.93;0.40;;;25.80;77.00;;;;;;6276000;22;20443;-92
2022/08/31 13:25:40;;;;;;;2.65;0.43;;;25.80;79.00;;;;;;6276636;22;20022;-92
2022/08/31 13:28:09;;;;;;;2.15;0.38;;;25.80;77.80;;;;;;6281576;22;20068;-94